createdAt,value
2019-06-27T18:54:30.595Z,20.97
2019-06-27T18:56:56.546Z,20.81
2019-06-27T18:59:22.419Z,20.62
2019-06-27T19:01:48.406Z,20.52
2019-06-27T19:04:14.598Z,20.42
2019-06-27T19:06:40.532Z,20.51
2019-06-27T19:09:06.444Z,20.37
2019-06-27T19:11:32.345Z,20.29
2019-06-27T19:13:58.293Z,20.10
2019-06-27T19:16:24.184Z,19.97
2019-06-27T19:18:52.103Z,19.84
2019-06-27T19:21:36.449Z,19.88
2019-06-27T19:24:07.073Z,19.60
2019-06-27T19:26:32.953Z,19.66
2019-06-27T19:28:58.871Z,19.66
2019-06-27T19:31:24.754Z,19.48
2019-06-27T19:33:50.792Z,19.32
2019-06-27T19:36:16.663Z,19.32
2019-06-27T19:38:42.588Z,19.36
2019-06-27T19:41:08.481Z,19.26
2019-06-27T19:43:34.409Z,19.23
2019-06-27T19:46:00.277Z,19.23
2019-06-27T19:48:26.215Z,19.24
2019-06-27T19:50:52.092Z,19.22
2019-06-27T19:53:18.004Z,19.09
2019-06-27T19:55:43.972Z,19.05
2019-06-27T19:58:09.848Z,19.01
2019-06-27T20:00:35.813Z,18.77
2019-06-27T20:03:01.706Z,18.78
2019-06-27T20:05:27.619Z,18.76
2019-06-27T20:07:53.511Z,18.69
2019-06-27T20:10:19.435Z,18.79
2019-06-27T20:12:45.419Z,18.68
2019-06-27T20:15:11.379Z,18.63
2019-06-27T20:17:37.269Z,18.55
2019-06-27T20:20:03.343Z,18.33
2019-06-27T20:22:29.309Z,18.37
2019-06-27T20:24:55.235Z,18.34
2019-06-27T20:27:21.148Z,18.34
2019-06-27T20:29:47.043Z,18.13
2019-06-27T20:32:12.967Z,18.19
2019-06-27T20:34:39.550Z,18.14
2019-06-27T20:37:05.649Z,17.95
2019-06-27T20:39:31.557Z,17.98
2019-06-27T20:41:57.458Z,17.96
2019-06-27T20:44:23.653Z,17.72
2019-06-27T20:46:49.578Z,17.79
2019-06-27T20:49:15.529Z,17.66
2019-06-27T20:51:41.589Z,17.77
2019-06-27T20:54:07.597Z,17.81
2019-06-27T20:56:33.509Z,17.77
2019-06-27T20:58:59.382Z,17.64
2019-06-27T21:01:25.328Z,17.67
2019-06-27T21:03:51.192Z,17.45
2019-06-27T21:06:17.155Z,17.46
2019-06-27T21:08:51.143Z,17.52
2019-06-27T21:11:10.839Z,17.42
2019-06-27T21:13:36.783Z,17.31
2019-06-27T21:16:02.656Z,17.34
2019-06-27T21:18:28.538Z,17.31
2019-06-27T21:20:54.461Z,17.20
2019-06-27T21:23:20.334Z,17.16
2019-06-27T21:25:46.241Z,17.13
2019-06-27T21:28:12.114Z,17.13
2019-06-27T21:30:38.020Z,17.18
2019-06-27T21:33:03.888Z,17.14
2019-06-27T21:35:29.778Z,17.08
2019-06-27T21:37:55.672Z,16.94
2019-06-27T21:40:22.608Z,16.95
2019-06-27T21:42:48.539Z,16.88
2019-06-27T21:45:14.469Z,16.90
2019-06-27T21:47:40.369Z,16.92
2019-06-27T21:50:06.788Z,16.93
2019-06-27T21:52:32.680Z,16.89
2019-06-27T21:54:58.617Z,16.88
2019-06-27T21:57:24.557Z,16.67
2019-06-27T21:59:50.532Z,16.85
2019-06-27T22:02:16.577Z,16.96
2019-06-27T22:04:42.504Z,17.06
2019-06-27T22:07:08.470Z,17.02
2019-06-27T22:09:34.347Z,17.11
2019-06-27T22:12:00.234Z,17.06
2019-06-27T22:14:26.146Z,16.97
2019-06-27T22:16:52.027Z,16.99
2019-06-27T22:19:17.940Z,17.09
2019-06-27T22:21:44.118Z,16.94
2019-06-27T22:24:10.066Z,16.80
2019-06-27T22:26:35.982Z,16.74
2019-06-27T22:29:02.002Z,16.57
2019-06-27T22:31:27.924Z,16.66
2019-06-27T22:33:53.872Z,16.72
2019-06-27T22:36:19.741Z,16.64
2019-06-27T22:39:04.607Z,16.60
2019-06-27T22:41:48.971Z,16.62
2019-06-27T22:44:33.627Z,16.66
2019-06-27T22:47:17.931Z,16.77
2019-06-27T22:49:43.820Z,16.74
2019-06-27T22:52:26.805Z,16.85
2019-06-27T22:54:54.668Z,16.63
2019-06-27T22:57:20.553Z,16.70
2019-06-27T22:59:46.419Z,16.89
2019-06-27T23:02:12.388Z,16.85
2019-06-27T23:04:38.264Z,16.92
2019-06-27T23:07:04.171Z,16.92
2019-06-27T23:09:30.077Z,16.82
2019-06-27T23:11:56.028Z,16.84
2019-06-27T23:14:21.996Z,16.93
2019-06-27T23:16:47.897Z,16.92
2019-06-27T23:19:13.836Z,16.96
2019-06-27T23:21:39.711Z,16.88
2019-06-27T23:24:05.622Z,16.77
2019-06-27T23:26:31.499Z,16.81
2019-06-27T23:28:57.420Z,16.80
2019-06-27T23:31:23.295Z,16.78
2019-06-27T23:33:49.175Z,16.87
2019-06-27T23:36:15.094Z,16.78
2019-06-27T23:38:40.954Z,16.67
2019-06-27T23:41:06.868Z,16.73
2019-06-27T23:43:32.732Z,16.74
2019-06-27T23:45:58.640Z,16.70
2019-06-27T23:48:24.526Z,16.70
2019-06-27T23:50:50.487Z,16.55
2019-06-27T23:53:16.462Z,16.42
2019-06-27T23:55:42.362Z,16.60
2019-06-27T23:58:08.277Z,16.61
